sensor_id;sensor_type;location;lat;lon;timestamp;temperature;humidity
12911;DHT22;6523;49.758;6.120;2023-02-01T00:01:48;5.50;99.90
12911;DHT22;6523;49.758;6.120;2023-02-01T00:04:13;5.50;99.90
12911;DHT22;6523;49.758;6.120;2023-02-01T00:06:39;5.50;99.90
12911;DHT22;6523;49.758;6.120;2023-02-01T00:09:05;5.50;99.90
12911;DHT22;6523;49.758;6.120;2023-02-01T00:11:30;5.60;99.90
12911;DHT22;6523;49.758;6.120;2023-02-01T00:13:56;5.60;99.90
12911;DHT22;6523;49.758;6.120;2023-02-01T00:16:24;5.60;99.90
12911;DHT22;6523;49.758;6.120;2023-02-01T00:18:55;5.60;99.90
12911;DHT22;6523;49.758;6.120;2023-02-01T00:21:21;5.70;99.90
12911;DHT22;6523;49.758;6.120;2023-02-01T00:23:46;5.70;99.90
12911;DHT22;6523;49.758;6.120;2023-02-01T00:26:18;5.60;99.90
12911;DHT22;6523;49.758;6.120;2023-02-01T00:28:44;5.60;99.90
12911;DHT22;6523;49.758;6.120;2023-02-01T00:31:10;5.60;99.90
12911;DHT22;6523;49.758;6.120;2023-02-01T00:33:35;5.60;99.90
12911;DHT22;6523;49.758;6.120;2023-02-01T00:36:03;5.50;99.90
12911;DHT22;6523;49.758;6.120;2023-02-01T00:38:30;5.50;99.90
12911;DHT22;6523;49.758;6.120;2023-02-01T00:41:07;5.50;99.90
12911;DHT22;6523;49.758;6.120;2023-02-01T00:43:35;5.50;99.90
12911;DHT22;6523;49.758;6.120;2023-02-01T00:46:01;5.50;99.90
12911;DHT22;6523;49.758;6.120;2023-02-01T00:48:27;5.60;99.90
12911;DHT22;6523;49.758;6.120;2023-02-01T00:50:52;5.60;99.90
12911;DHT22;6523;49.758;6.120;2023-02-01T00:53:18;5.60;99.90
12911;DHT22;6523;49.758;6.120;2023-02-01T00:55:48;5.60;99.90
12911;DHT22;6523;49.758;6.120;2023-02-01T00:58:14;5.70;99.90
12911;DHT22;6523;49.758;6.120;2023-02-01T01:00:40;5.70;99.90
12911;DHT22;6523;49.758;6.120;2023-02-01T01:03:06;5.70;99.90
12911;DHT22;6523;49.758;6.120;2023-02-01T01:05:49;5.70;99.90
12911;DHT22;6523;49.758;6.120;2023-02-01T01:08:16;5.70;99.90
12911;DHT22;6523;49.758;6.120;2023-02-01T01:10:42;5.70;99.90
12911;DHT22;6523;49.758;6.120;2023-02-01T01:13:08;5.70;99.90
12911;DHT22;6523;49.758;6.120;2023-02-01T01:15:38;5.80;99.90
12911;DHT22;6523;49.758;6.120;2023-02-01T01:18:04;5.80;99.90
12911;DHT22;6523;49.758;6.120;2023-02-01T01:20:30;5.70;99.90
12911;DHT22;6523;49.758;6.120;2023-02-01T01:22:56;5.80;99.90
12911;DHT22;6523;49.758;6.120;2023-02-01T01:25:21;5.80;99.90
12911;DHT22;6523;49.758;6.120;2023-02-01T01:27:47;5.70;99.90
12911;DHT22;6523;49.758;6.120;2023-02-01T01:30:13;5.70;99.90
12911;DHT22;6523;49.758;6.120;2023-02-01T01:32:38;5.70;99.90
12911;DHT22;6523;49.758;6.120;2023-02-01T01:35:04;5.70;99.90
12911;DHT22;6523;49.758;6.120;2023-02-01T01:37:30;5.80;99.90
12911;DHT22;6523;49.758;6.120;2023-02-01T01:39:56;5.80;99.90
12911;DHT22;6523;49.758;6.120;2023-02-01T01:42:22;5.70;99.90
12911;DHT22;6523;49.758;6.120;2023-02-01T01:45:01;5.70;99.90
12911;DHT22;6523;49.758;6.120;2023-02-01T01:47:33;5.80;99.90
12911;DHT22;6523;49.758;6.120;2023-02-01T01:50:01;5.70;99.90
12911;DHT22;6523;49.758;6.120;2023-02-01T01:52:27;5.80;99.90
12911;DHT22;6523;49.758;6.120;2023-02-01T01:54:53;5.70;99.90
12911;DHT22;6523;49.758;6.120;2023-02-01T01:57:23;5.80;99.90
12911;DHT22;6523;49.758;6.120;2023-02-01T01:59:55;5.80;99.90
12911;DHT22;6523;49.758;6.120;2023-02-01T02:02:23;5.80;99.90
12911;DHT22;6523;49.758;6.120;2023-02-01T02:04:50;5.80;99.90
12911;DHT22;6523;49.758;6.120;2023-02-01T02:07:26;5.80;99.90
12911;DHT22;6523;49.758;6.120;2023-02-01T02:09:54;5.80;99.90
12911;DHT22;6523;49.758;6.120;2023-02-01T02:12:20;5.80;99.90
12911;DHT22;6523;49.758;6.120;2023-02-01T02:14:46;5.70;99.90
12911;DHT22;6523;49.758;6.120;2023-02-01T02:17:35;5.70;99.90
12911;DHT22;6523;49.758;6.120;2023-02-01T02:22:57;5.70;99.90
12911;DHT22;6523;49.758;6.120;2023-02-01T02:26:01;5.60;99.90
12911;DHT22;6523;49.758;6.120;2023-02-01T02:37:20;5.70;99.90
12911;DHT22;6523;49.758;6.120;2023-02-01T02:43:11;5.70;99.90
12911;DHT22;6523;49.758;6.120;2023-02-01T02:46:24;5.60;99.90
12911;DHT22;6523;49.758;6.120;2023-02-01T02:49:25;5.70;99.90
12911;DHT22;6523;49.758;6.120;2023-02-01T02:52:13;5.60;99.90
12911;DHT22;6523;49.758;6.120;2023-02-01T02:55:01;5.70;99.90
12911;DHT22;6523;49.758;6.120;2023-02-01T02:57:37;5.80;99.90
12911;DHT22;6523;49.758;6.120;2023-02-01T03:00:27;5.80;99.90
12911;DHT22;6523;49.758;6.120;2023-02-01T03:03:12;5.80;99.90
12911;DHT22;6523;49.758;6.120;2023-02-01T03:05:56;5.80;99.90
12911;DHT22;6523;49.758;6.120;2023-02-01T03:08:23;5.80;99.90
12911;DHT22;6523;49.758;6.120;2023-02-01T03:11:00;5.80;99.90
12911;DHT22;6523;49.758;6.120;2023-02-01T03:16:32;5.80;99.90
12911;DHT22;6523;49.758;6.120;2023-02-01T03:21:39;5.90;99.90
12911;DHT22;6523;49.758;6.120;2023-02-01T03:24:16;5.80;99.90
12911;DHT22;6523;49.758;6.120;2023-02-01T03:26:48;5.80;99.90
12911;DHT22;6523;49.758;6.120;2023-02-01T03:29:18;5.80;99.90
12911;DHT22;6523;49.758;6.120;2023-02-01T03:31:46;5.80;99.90
12911;DHT22;6523;49.758;6.120;2023-02-01T03:34:12;5.80;99.90
12911;DHT22;6523;49.758;6.120;2023-02-01T03:36:56;5.80;99.90
12911;DHT22;6523;49.758;6.120;2023-02-01T03:39:48;5.80;99.90
12911;DHT22;6523;49.758;6.120;2023-02-01T03:42:21;5.80;99.90
12911;DHT22;6523;49.758;6.120;2023-02-01T03:45:01;5.80;99.90
12911;DHT22;6523;49.758;6.120;2023-02-01T03:47:30;5.80;99.90
12911;DHT22;6523;49.758;6.120;2023-02-01T03:50:03;5.80;99.90
12911;DHT22;6523;49.758;6.120;2023-02-01T03:52:40;5.80;99.90
12911;DHT22;6523;49.758;6.120;2023-02-01T03:55:07;5.80;99.90
12911;DHT22;6523;49.758;6.120;2023-02-01T03:57:37;5.80;99.90
12911;DHT22;6523;49.758;6.120;2023-02-01T04:00:09;5.80;99.90
12911;DHT22;6523;49.758;6.120;2023-02-01T04:02:39;5.70;99.90
12911;DHT22;6523;49.758;6.120;2023-02-01T04:05:05;5.80;99.90
12911;DHT22;6523;49.758;6.120;2023-02-01T04:07:31;5.70;99.90
12911;DHT22;6523;49.758;6.120;2023-02-01T04:09:57;5.70;99.90
12911;DHT22;6523;49.758;6.120;2023-02-01T04:12:22;5.80;99.90
12911;DHT22;6523;49.758;6.120;2023-02-01T04:14:48;5.80;99.90
12911;DHT22;6523;49.758;6.120;2023-02-01T04:17:14;5.80;99.90
12911;DHT22;6523;49.758;6.120;2023-02-01T04:19:39;5.80;99.90
12911;DHT22;6523;49.758;6.120;2023-02-01T04:22:05;5.80;99.90
12911;DHT22;6523;49.758;6.120;2023-02-01T04:24:30;5.80;99.90
12911;DHT22;6523;49.758;6.120;2023-02-01T04:26:56;5.80;99.90
12911;DHT22;6523;49.758;6.120;2023-02-01T04:29:21;5.80;99.90
12911;DHT22;6523;49.758;6.120;2023-02-01T04:31:47;5.80;99.90
12911;DHT22;6523;49.758;6.120;2023-02-01T04:34:12;5.80;99.90
12911;DHT22;6523;49.758;6.120;2023-02-01T04:36:38;5.80;99.90
12911;DHT22;6523;49.758;6.120;2023-02-01T04:39:03;5.80;99.90
12911;DHT22;6523;49.758;6.120;2023-02-01T04:41:29;5.80;99.90
12911;DHT22;6523;49.758;6.120;2023-02-01T04:43:55;5.80;99.90
12911;DHT22;6523;49.758;6.120;2023-02-01T04:46:21;5.90;99.90
12911;DHT22;6523;49.758;6.120;2023-02-01T04:48:47;5.80;99.90
12911;DHT22;6523;49.758;6.120;2023-02-01T04:51:13;5.80;99.90
12911;DHT22;6523;49.758;6.120;2023-02-01T04:53:40;5.80;99.90
12911;DHT22;6523;49.758;6.120;2023-02-01T04:56:06;5.80;99.90
12911;DHT22;6523;49.758;6.120;2023-02-01T04:58:32;5.90;99.90
12911;DHT22;6523;49.758;6.120;2023-02-01T05:00:57;5.90;99.90
12911;DHT22;6523;49.758;6.120;2023-02-01T05:03:23;5.90;99.90
12911;DHT22;6523;49.758;6.120;2023-02-01T05:05:48;5.80;99.90
12911;DHT22;6523;49.758;6.120;2023-02-01T05:08:15;5.80;99.90
12911;DHT22;6523;49.758;6.120;2023-02-01T05:10:40;5.80;99.90
12911;DHT22;6523;49.758;6.120;2023-02-01T05:13:07;5.80;99.90
12911;DHT22;6523;49.758;6.120;2023-02-01T05:15:51;5.70;99.90
12911;DHT22;6523;49.758;6.120;2023-02-01T05:18:17;5.80;99.90
12911;DHT22;6523;49.758;6.120;2023-02-01T05:20:42;5.80;99.90
12911;DHT22;6523;49.758;6.120;2023-02-01T05:23:08;5.80;99.90
12911;DHT22;6523;49.758;6.120;2023-02-01T05:25:33;5.80;99.90
12911;DHT22;6523;49.758;6.120;2023-02-01T05:27:59;5.70;99.90
12911;DHT22;6523;49.758;6.120;2023-02-01T05:30:24;5.80;99.90
12911;DHT22;6523;49.758;6.120;2023-02-01T05:32:51;5.70;99.90
12911;DHT22;6523;49.758;6.120;2023-02-01T05:35:17;5.70;99.90
12911;DHT22;6523;49.758;6.120;2023-02-01T05:37:43;5.80;99.90
12911;DHT22;6523;49.758;6.120;2023-02-01T05:40:09;5.70;99.90
12911;DHT22;6523;49.758;6.120;2023-02-01T05:42:35;5.70;99.90
12911;DHT22;6523;49.758;6.120;2023-02-01T05:45:00;5.70;99.90
12911;DHT22;6523;49.758;6.120;2023-02-01T05:47:26;5.80;99.90
12911;DHT22;6523;49.758;6.120;2023-02-01T05:49:52;5.70;99.90
12911;DHT22;6523;49.758;6.120;2023-02-01T05:52:17;5.70;99.90
12911;DHT22;6523;49.758;6.120;2023-02-01T05:54:45;5.60;99.90
12911;DHT22;6523;49.758;6.120;2023-02-01T05:57:11;5.60;99.90
12911;DHT22;6523;49.758;6.120;2023-02-01T05:59:38;5.50;99.90
12911;DHT22;6523;49.758;6.120;2023-02-01T06:02:07;5.50;99.90
12911;DHT22;6523;49.758;6.120;2023-02-01T06:04:32;5.50;99.90
12911;DHT22;6523;49.758;6.120;2023-02-01T06:06:58;5.50;99.90
12911;DHT22;6523;49.758;6.120;2023-02-01T06:09:23;5.40;99.90
12911;DHT22;6523;49.758;6.120;2023-02-01T06:11:49;5.40;99.90
12911;DHT22;6523;49.758;6.120;2023-02-01T06:14:15;5.50;99.90
12911;DHT22;6523;49.758;6.120;2023-02-01T06:16:40;5.40;99.90
12911;DHT22;6523;49.758;6.120;2023-02-01T06:19:06;5.30;99.90
12911;DHT22;6523;49.758;6.120;2023-02-01T06:21:31;5.30;99.90
12911;DHT22;6523;49.758;6.120;2023-02-01T06:23:58;5.20;99.90
12911;DHT22;6523;49.758;6.120;2023-02-01T06:26:24;5.20;99.90
12911;DHT22;6523;49.758;6.120;2023-02-01T06:28:50;5.10;99.90
12911;DHT22;6523;49.758;6.120;2023-02-01T06:31:15;5.10;99.90
12911;DHT22;6523;49.758;6.120;2023-02-01T06:33:41;5.00;99.90
12911;DHT22;6523;49.758;6.120;2023-02-01T06:36:09;5.00;99.90
12911;DHT22;6523;49.758;6.120;2023-02-01T06:38:35;4.90;99.90
12911;DHT22;6523;49.758;6.120;2023-02-01T06:41:01;4.90;99.90
12911;DHT22;6523;49.758;6.120;2023-02-01T06:43:28;4.90;99.90
12911;DHT22;6523;49.758;6.120;2023-02-01T06:45:58;4.70;99.90
12911;DHT22;6523;49.758;6.120;2023-02-01T06:48:24;4.70;99.90
12911;DHT22;6523;49.758;6.120;2023-02-01T06:50:50;4.70;99.90
12911;DHT22;6523;49.758;6.120;2023-02-01T06:53:15;4.60;99.90
12911;DHT22;6523;49.758;6.120;2023-02-01T06:55:41;4.60;99.90
12911;DHT22;6523;49.758;6.120;2023-02-01T06:58:06;4.60;99.90
12911;DHT22;6523;49.758;6.120;2023-02-01T07:00:32;4.50;99.90
12911;DHT22;6523;49.758;6.120;2023-02-01T07:02:58;4.50;99.90
12911;DHT22;6523;49.758;6.120;2023-02-01T07:05:24;4.50;99.90
12911;DHT22;6523;49.758;6.120;2023-02-01T07:07:50;4.50;99.90
12911;DHT22;6523;49.758;6.120;2023-02-01T07:10:16;4.50;99.90
12911;DHT22;6523;49.758;6.120;2023-02-01T07:12:41;4.40;99.90
12911;DHT22;6523;49.758;6.120;2023-02-01T07:15:07;4.40;99.90
12911;DHT22;6523;49.758;6.120;2023-02-01T07:17:33;4.30;99.90
12911;DHT22;6523;49.758;6.120;2023-02-01T07:19:58;4.30;99.90
12911;DHT22;6523;49.758;6.120;2023-02-01T07:22:25;4.30;99.90
12911;DHT22;6523;49.758;6.120;2023-02-01T07:24:51;4.20;99.90
12911;DHT22;6523;49.758;6.120;2023-02-01T07:27:16;4.10;99.90
12911;DHT22;6523;49.758;6.120;2023-02-01T07:29:42;4.00;99.90
12911;DHT22;6523;49.758;6.120;2023-02-01T07:32:07;4.10;99.90
12911;DHT22;6523;49.758;6.120;2023-02-01T07:34:33;4.00;99.90
12911;DHT22;6523;49.758;6.120;2023-02-01T07:36:59;4.10;99.90
12911;DHT22;6523;49.758;6.120;2023-02-01T07:39:24;4.00;99.90
12911;DHT22;6523;49.758;6.120;2023-02-01T07:41:50;4.10;99.90
12911;DHT22;6523;49.758;6.120;2023-02-01T07:44:16;4.10;99.90
12911;DHT22;6523;49.758;6.120;2023-02-01T07:46:44;4.20;99.90
12911;DHT22;6523;49.758;6.120;2023-02-01T07:49:09;4.30;99.90
12911;DHT22;6523;49.758;6.120;2023-02-01T07:51:35;4.30;99.90
12911;DHT22;6523;49.758;6.120;2023-02-01T07:54:00;4.30;99.90
12911;DHT22;6523;49.758;6.120;2023-02-01T07:56:26;4.40;99.90
12911;DHT22;6523;49.758;6.120;2023-02-01T07:58:53;4.30;99.90
12911;DHT22;6523;49.758;6.120;2023-02-01T08:01:23;4.40;99.90
12911;DHT22;6523;49.758;6.120;2023-02-01T08:03:54;4.50;99.90
12911;DHT22;6523;49.758;6.120;2023-02-01T08:06:21;4.40;99.90
12911;DHT22;6523;49.758;6.120;2023-02-01T08:08:48;4.50;99.90
12911;DHT22;6523;49.758;6.120;2023-02-01T08:11:14;4.50;99.90
12911;DHT22;6523;49.758;6.120;2023-02-01T08:13:41;4.50;99.90
12911;DHT22;6523;49.758;6.120;2023-02-01T08:16:09;4.50;99.90
12911;DHT22;6523;49.758;6.120;2023-02-01T08:18:36;4.50;99.90
12911;DHT22;6523;49.758;6.120;2023-02-01T08:21:13;4.50;99.90
12911;DHT22;6523;49.758;6.120;2023-02-01T08:23:40;4.50;99.90
12911;DHT22;6523;49.758;6.120;2023-02-01T08:26:17;4.50;99.90
12911;DHT22;6523;49.758;6.120;2023-02-01T08:28:46;4.50;99.90
12911;DHT22;6523;49.758;6.120;2023-02-01T08:31:15;4.50;99.90
12911;DHT22;6523;49.758;6.120;2023-02-01T08:33:42;4.50;99.90
12911;DHT22;6523;49.758;6.120;2023-02-01T08:36:09;4.60;99.90
12911;DHT22;6523;49.758;6.120;2023-02-01T08:38:37;4.60;99.90
12911;DHT22;6523;49.758;6.120;2023-02-01T08:41:07;4.60;99.90
12911;DHT22;6523;49.758;6.120;2023-02-01T08:43:33;4.60;99.90
12911;DHT22;6523;49.758;6.120;2023-02-01T08:45:59;4.60;99.90
12911;DHT22;6523;49.758;6.120;2023-02-01T08:48:25;4.70;99.90
12911;DHT22;6523;49.758;6.120;2023-02-01T08:50:50;4.70;99.90
12911;DHT22;6523;49.758;6.120;2023-02-01T08:53:16;4.70;99.90
12911;DHT22;6523;49.758;6.120;2023-02-01T08:55:41;4.70;99.90
12911;DHT22;6523;49.758;6.120;2023-02-01T08:58:07;4.70;99.90
12911;DHT22;6523;49.758;6.120;2023-02-01T09:00:32;4.70;99.90
12911;DHT22;6523;49.758;6.120;2023-02-01T09:02:58;4.80;99.90
12911;DHT22;6523;49.758;6.120;2023-02-01T09:05:24;4.80;99.90
12911;DHT22;6523;49.758;6.120;2023-02-01T09:07:52;4.80;99.90
12911;DHT22;6523;49.758;6.120;2023-02-01T09:10:18;4.90;99.90
12911;DHT22;6523;49.758;6.120;2023-02-01T09:12:44;4.90;99.90
12911;DHT22;6523;49.758;6.120;2023-02-01T09:15:09;4.90;99.90
12911;DHT22;6523;49.758;6.120;2023-02-01T09:17:35;5.00;99.90
12911;DHT22;6523;49.758;6.120;2023-02-01T09:20:01;4.90;99.90
12911;DHT22;6523;49.758;6.120;2023-02-01T09:22:27;4.90;99.90
12911;DHT22;6523;49.758;6.120;2023-02-01T09:24:53;4.90;99.90
12911;DHT22;6523;49.758;6.120;2023-02-01T09:27:19;4.90;99.90
12911;DHT22;6523;49.758;6.120;2023-02-01T09:29:44;4.90;99.90
12911;DHT22;6523;49.758;6.120;2023-02-01T09:32:10;4.90;99.90
12911;DHT22;6523;49.758;6.120;2023-02-01T09:34:36;5.00;99.90
12911;DHT22;6523;49.758;6.120;2023-02-01T09:37:01;5.00;99.90
12911;DHT22;6523;49.758;6.120;2023-02-01T09:39:28;5.00;99.90
12911;DHT22;6523;49.758;6.120;2023-02-01T09:47:01;5.10;99.90
12911;DHT22;6523;49.758;6.120;2023-02-01T09:49:30;5.20;99.90
12911;DHT22;6523;49.758;6.120;2023-02-01T09:52:00;5.20;99.90
12911;DHT22;6523;49.758;6.120;2023-02-01T09:54:33;5.20;99.90
12911;DHT22;6523;49.758;6.120;2023-02-01T09:57:13;5.20;99.90
12911;DHT22;6523;49.758;6.120;2023-02-01T09:59:49;5.30;99.90
12911;DHT22;6523;49.758;6.120;2023-02-01T10:02:21;5.30;99.90
12911;DHT22;6523;49.758;6.120;2023-02-01T10:04:48;5.30;99.90
12911;DHT22;6523;49.758;6.120;2023-02-01T10:09:58;5.40;99.90
12911;DHT22;6523;49.758;6.120;2023-02-01T10:12:33;5.40;99.90
12911;DHT22;6523;49.758;6.120;2023-02-01T10:15:19;5.50;99.90
12911;DHT22;6523;49.758;6.120;2023-02-01T10:26:34;5.90;99.90
12911;DHT22;6523;49.758;6.120;2023-02-01T10:29:01;5.90;99.90
12911;DHT22;6523;49.758;6.120;2023-02-01T10:31:35;5.80;99.90
12911;DHT22;6523;49.758;6.120;2023-02-01T10:34:31;5.90;99.90
12911;DHT22;6523;49.758;6.120;2023-02-01T10:39:33;5.90;99.90
12911;DHT22;6523;49.758;6.120;2023-02-01T10:41:58;5.90;99.90
12911;DHT22;6523;49.758;6.120;2023-02-01T10:44:26;5.90;99.90
12911;DHT22;6523;49.758;6.120;2023-02-01T10:46:53;5.90;99.90
12911;DHT22;6523;49.758;6.120;2023-02-01T10:49:43;5.90;99.90
12911;DHT22;6523;49.758;6.120;2023-02-01T10:52:42;6.00;99.90
12911;DHT22;6523;49.758;6.120;2023-02-01T10:55:30;6.00;99.90
12911;DHT22;6523;49.758;6.120;2023-02-01T10:57:59;6.10;99.90
12911;DHT22;6523;49.758;6.120;2023-02-01T11:00:26;6.10;99.90
12911;DHT22;6523;49.758;6.120;2023-02-01T11:02:53;6.00;99.90
12911;DHT22;6523;49.758;6.120;2023-02-01T11:05:19;6.20;99.90
12911;DHT22;6523;49.758;6.120;2023-02-01T11:07:52;6.20;99.90
12911;DHT22;6523;49.758;6.120;2023-02-01T11:10:40;6.70;99.90
12911;DHT22;6523;49.758;6.120;2023-02-01T11:13:17;6.70;99.90
12911;DHT22;6523;49.758;6.120;2023-02-01T11:15:47;6.80;99.90
12911;DHT22;6523;49.758;6.120;2023-02-01T11:18:26;6.90;99.90
12911;DHT22;6523;49.758;6.120;2023-02-01T11:20:52;6.80;99.90
12911;DHT22;6523;49.758;6.120;2023-02-01T11:23:22;6.70;99.90
12911;DHT22;6523;49.758;6.120;2023-02-01T11:25:57;7.20;99.90
12911;DHT22;6523;49.758;6.120;2023-02-01T11:28:30;7.20;99.90
12911;DHT22;6523;49.758;6.120;2023-02-01T11:30:58;7.10;99.90
12911;DHT22;6523;49.758;6.120;2023-02-01T11:33:27;6.80;99.90
12911;DHT22;6523;49.758;6.120;2023-02-01T11:35:56;7.10;99.90
12911;DHT22;6523;49.758;6.120;2023-02-01T11:38:29;7.00;99.90
12911;DHT22;6523;49.758;6.120;2023-02-01T11:41:10;7.00;99.90
12911;DHT22;6523;49.758;6.120;2023-02-01T11:43:36;6.80;99.90
12911;DHT22;6523;49.758;6.120;2023-02-01T11:46:03;6.60;99.90
12911;DHT22;6523;49.758;6.120;2023-02-01T11:48:31;6.60;99.90
12911;DHT22;6523;49.758;6.120;2023-02-01T12:01:57;7.40;99.90
12911;DHT22;6523;49.758;6.120;2023-02-01T12:04:45;7.10;99.90
12911;DHT22;6523;49.758;6.120;2023-02-01T12:10:50;7.10;99.90
12911;DHT22;6523;49.758;6.120;2023-02-01T12:13:24;7.20;99.90
12911;DHT22;6523;49.758;6.120;2023-02-01T12:16:32;6.90;99.90
12911;DHT22;6523;49.758;6.120;2023-02-01T12:19:21;7.20;99.90
12911;DHT22;6523;49.758;6.120;2023-02-01T12:30:33;7.10;99.90
12911;DHT22;6523;49.758;6.120;2023-02-01T12:41:45;7.80;99.90
12911;DHT22;6523;49.758;6.120;2023-02-01T12:44:22;8.00;99.90
12911;DHT22;6523;49.758;6.120;2023-02-01T12:46:53;7.60;99.90
12911;DHT22;6523;49.758;6.120;2023-02-01T12:49:38;8.10;99.90
12911;DHT22;6523;49.758;6.120;2023-02-01T12:52:13;7.70;99.90
12911;DHT22;6523;49.758;6.120;2023-02-01T12:54:55;7.60;99.90
12911;DHT22;6523;49.758;6.120;2023-02-01T12:57:30;7.40;99.90
12911;DHT22;6523;49.758;6.120;2023-02-01T13:02:54;7.50;99.90
12911;DHT22;6523;49.758;6.120;2023-02-01T13:05:23;7.60;99.90
12911;DHT22;6523;49.758;6.120;2023-02-01T13:08:11;7.70;99.90
12911;DHT22;6523;49.758;6.120;2023-02-01T13:10:47;7.70;99.90
12911;DHT22;6523;49.758;6.120;2023-02-01T13:13:31;7.70;99.90
12911;DHT22;6523;49.758;6.120;2023-02-01T13:18:35;8.20;99.90
12911;DHT22;6523;49.758;6.120;2023-02-01T13:21:18;7.90;99.90
12911;DHT22;6523;49.758;6.120;2023-02-01T13:23:48;8.00;99.90
12911;DHT22;6523;49.758;6.120;2023-02-01T13:26:14;7.80;99.90
12911;DHT22;6523;49.758;6.120;2023-02-01T13:28:50;7.80;99.90
12911;DHT22;6523;49.758;6.120;2023-02-01T13:39:43;7.40;99.90
12911;DHT22;6523;49.758;6.120;2023-02-01T13:42:16;7.40;99.90
12911;DHT22;6523;49.758;6.120;2023-02-01T13:44:50;7.50;99.90
12911;DHT22;6523;49.758;6.120;2023-02-01T13:47:26;7.50;99.90
12911;DHT22;6523;49.758;6.120;2023-02-01T13:49:55;7.40;99.90
12911;DHT22;6523;49.758;6.120;2023-02-01T13:52:28;7.50;99.90
12911;DHT22;6523;49.758;6.120;2023-02-01T13:55:13;7.40;99.90
12911;DHT22;6523;49.758;6.120;2023-02-01T13:57:42;7.50;99.90
12911;DHT22;6523;49.758;6.120;2023-02-01T14:00:32;7.40;99.90
12911;DHT22;6523;49.758;6.120;2023-02-01T14:13:29;7.90;99.90
12911;DHT22;6523;49.758;6.120;2023-02-01T14:21:19;8.30;99.90
12911;DHT22;6523;49.758;6.120;2023-02-01T14:26:46;8.00;99.90
12911;DHT22;6523;49.758;6.120;2023-02-01T14:32:17;7.80;99.90
12911;DHT22;6523;49.758;6.120;2023-02-01T14:48:40;7.50;99.90
12911;DHT22;6523;49.758;6.120;2023-02-01T14:50:47;7.40;99.90
12911;DHT22;6523;49.758;6.120;2023-02-01T14:55:58;7.40;99.90
12911;DHT22;6523;49.758;6.120;2023-02-01T15:01:20;7.20;99.90
12911;DHT22;6523;49.758;6.120;2023-02-01T15:04:12;7.30;99.90
12911;DHT22;6523;49.758;6.120;2023-02-01T15:06:52;7.40;99.90
12911;DHT22;6523;49.758;6.120;2023-02-01T15:09:31;7.30;99.90
12911;DHT22;6523;49.758;6.120;2023-02-01T15:14:46;7.20;99.90
12911;DHT22;6523;49.758;6.120;2023-02-01T15:17:31;7.00;99.90
12911;DHT22;6523;49.758;6.120;2023-02-01T15:22:38;7.00;99.90
12911;DHT22;6523;49.758;6.120;2023-02-01T15:25:04;7.00;99.90
12911;DHT22;6523;49.758;6.120;2023-02-01T15:27:31;7.00;99.90
12911;DHT22;6523;49.758;6.120;2023-02-01T15:30:18;7.00;99.90
12911;DHT22;6523;49.758;6.120;2023-02-01T15:32:44;7.00;99.90
12911;DHT22;6523;49.758;6.120;2023-02-01T15:35:42;7.10;99.90
12911;DHT22;6523;49.758;6.120;2023-02-01T15:44:02;7.00;99.90
12911;DHT22;6523;49.758;6.120;2023-02-01T15:46:44;7.00;99.90
12911;DHT22;6523;49.758;6.120;2023-02-01T15:49:26;7.00;99.90
12911;DHT22;6523;49.758;6.120;2023-02-01T15:51:53;7.10;99.90
12911;DHT22;6523;49.758;6.120;2023-02-01T15:54:24;7.00;99.90
12911;DHT22;6523;49.758;6.120;2023-02-01T15:56:54;7.00;99.90
12911;DHT22;6523;49.758;6.120;2023-02-01T15:59:28;7.00;99.90
12911;DHT22;6523;49.758;6.120;2023-02-01T16:01:54;6.90;99.90
12911;DHT22;6523;49.758;6.120;2023-02-01T16:06:52;6.80;99.90
12911;DHT22;6523;49.758;6.120;2023-02-01T16:09:23;6.70;99.90
12911;DHT22;6523;49.758;6.120;2023-02-01T16:12:00;6.70;99.90
12911;DHT22;6523;49.758;6.120;2023-02-01T16:14:26;6.60;99.90
12911;DHT22;6523;49.758;6.120;2023-02-01T16:16:57;6.60;99.90
12911;DHT22;6523;49.758;6.120;2023-02-01T16:19:23;6.50;99.90
12911;DHT22;6523;49.758;6.120;2023-02-01T16:21:54;6.50;99.90
12911;DHT22;6523;49.758;6.120;2023-02-01T16:24:19;6.50;99.90
12911;DHT22;6523;49.758;6.120;2023-02-01T16:26:47;6.40;99.90
12911;DHT22;6523;49.758;6.120;2023-02-01T16:29:12;6.30;99.90
12911;DHT22;6523;49.758;6.120;2023-02-01T16:31:40;6.30;99.90
12911;DHT22;6523;49.758;6.120;2023-02-01T16:34:09;6.20;99.90
12911;DHT22;6523;49.758;6.120;2023-02-01T16:36:38;6.30;99.90
12911;DHT22;6523;49.758;6.120;2023-02-01T16:39:03;6.20;99.90
12911;DHT22;6523;49.758;6.120;2023-02-01T16:41:29;6.20;99.90
12911;DHT22;6523;49.758;6.120;2023-02-01T16:43:55;6.20;99.90
12911;DHT22;6523;49.758;6.120;2023-02-01T16:46:24;6.10;99.90
12911;DHT22;6523;49.758;6.120;2023-02-01T16:49:00;6.20;99.90
12911;DHT22;6523;49.758;6.120;2023-02-01T16:51:29;6.10;99.90
12911;DHT22;6523;49.758;6.120;2023-02-01T16:53:57;6.20;99.90
12911;DHT22;6523;49.758;6.120;2023-02-01T16:56:28;6.10;99.90
12911;DHT22;6523;49.758;6.120;2023-02-01T16:58:54;5.90;99.90
12911;DHT22;6523;49.758;6.120;2023-02-01T17:01:20;5.90;99.90
12911;DHT22;6523;49.758;6.120;2023-02-01T17:03:46;5.90;99.90
12911;DHT22;6523;49.758;6.120;2023-02-01T17:06:14;6.00;99.90
12911;DHT22;6523;49.758;6.120;2023-02-01T17:08:47;5.90;99.90
12911;DHT22;6523;49.758;6.120;2023-02-01T17:11:15;5.90;99.90
12911;DHT22;6523;49.758;6.120;2023-02-01T17:13:41;6.00;99.90
12911;DHT22;6523;49.758;6.120;2023-02-01T17:16:24;6.00;99.90
12911;DHT22;6523;49.758;6.120;2023-02-01T17:18:57;6.00;99.90
12911;DHT22;6523;49.758;6.120;2023-02-01T17:21:25;6.00;99.90
12911;DHT22;6523;49.758;6.120;2023-02-01T17:23:51;5.90;99.90
12911;DHT22;6523;49.758;6.120;2023-02-01T17:26:18;6.00;99.90
12911;DHT22;6523;49.758;6.120;2023-02-01T17:28:44;6.00;99.90
12911;DHT22;6523;49.758;6.120;2023-02-01T17:31:14;6.00;99.90
12911;DHT22;6523;49.758;6.120;2023-02-01T17:33:41;6.10;99.90
12911;DHT22;6523;49.758;6.120;2023-02-01T17:36:14;6.10;99.90
12911;DHT22;6523;49.758;6.120;2023-02-01T17:38:40;6.10;99.90
12911;DHT22;6523;49.758;6.120;2023-02-01T17:41:09;6.10;99.90
12911;DHT22;6523;49.758;6.120;2023-02-01T17:43:35;6.20;99.90
12911;DHT22;6523;49.758;6.120;2023-02-01T17:46:10;6.20;99.90
12911;DHT22;6523;49.758;6.120;2023-02-01T17:48:36;6.20;99.90
12911;DHT22;6523;49.758;6.120;2023-02-01T17:51:02;6.10;99.90
12911;DHT22;6523;49.758;6.120;2023-02-01T17:53:28;6.20;99.90
12911;DHT22;6523;49.758;6.120;2023-02-01T17:55:54;6.10;99.90
12911;DHT22;6523;49.758;6.120;2023-02-01T17:58:23;6.20;99.90
12911;DHT22;6523;49.758;6.120;2023-02-01T18:00:49;6.20;99.90
12911;DHT22;6523;49.758;6.120;2023-02-01T18:03:24;6.20;99.90
12911;DHT22;6523;49.758;6.120;2023-02-01T18:05:51;6.20;99.90
12911;DHT22;6523;49.758;6.120;2023-02-01T18:08:19;6.20;99.90
12911;DHT22;6523;49.758;6.120;2023-02-01T18:10:57;6.20;99.90
12911;DHT22;6523;49.758;6.120;2023-02-01T18:13:30;6.30;99.90
12911;DHT22;6523;49.758;6.120;2023-02-01T18:15:56;6.30;99.90
12911;DHT22;6523;49.758;6.120;2023-02-01T18:18:24;6.20;99.90
12911;DHT22;6523;49.758;6.120;2023-02-01T18:20:50;6.20;99.90
12911;DHT22;6523;49.758;6.120;2023-02-01T18:23:19;6.20;99.90
12911;DHT22;6523;49.758;6.120;2023-02-01T18:25:45;6.10;99.90
12911;DHT22;6523;49.758;6.120;2023-02-01T18:28:14;6.20;99.90
12911;DHT22;6523;49.758;6.120;2023-02-01T18:30:41;6.20;99.90
12911;DHT22;6523;49.758;6.120;2023-02-01T18:33:13;6.20;99.90
12911;DHT22;6523;49.758;6.120;2023-02-01T18:35:39;6.20;99.90
12911;DHT22;6523;49.758;6.120;2023-02-01T18:38:05;6.20;99.90
12911;DHT22;6523;49.758;6.120;2023-02-01T18:40:34;6.20;99.90